createdAt,value
2017-02-28T00:00:30.617Z,7.47
2017-02-28T00:01:30.601Z,7.71
2017-02-28T00:02:30.600Z,7.59
2017-02-28T00:03:30.571Z,7.82
2017-02-28T00:04:30.554Z,7.77
2017-02-28T00:05:30.656Z,7.75
2017-02-28T00:06:30.527Z,7.82
2017-02-28T00:07:30.521Z,7.75
2017-02-28T00:08:30.628Z,7.88
2017-02-28T00:09:30.100Z,7.82
2017-02-28T00:10:30.490Z,7.88
2017-02-28T00:11:30.863Z,7.8
2017-02-28T00:12:30.468Z,7.78
2017-02-28T00:13:31.291Z,7.82
2017-02-28T00:14:30.440Z,7.91
2017-02-28T00:15:30.435Z,8.01
2017-02-28T00:16:31.147Z,8.06
2017-02-28T00:17:30.019Z,8.14
2017-02-28T00:18:30.400Z,8.16
2017-02-28T00:19:30.672Z,8.19
2017-02-28T00:20:30.382Z,8.25
2017-02-28T00:21:30.161Z,8.1
2017-02-28T00:22:29.990Z,8.21
2017-02-28T00:23:29.941Z,8.09
2017-02-28T00:24:30.518Z,8.09
2017-02-28T00:25:30.332Z,8.13
2017-02-28T00:26:30.305Z,8.16
2017-02-28T00:27:30.943Z,8.24
2017-02-28T00:28:30.296Z,8.16
2017-02-28T00:29:30.277Z,8.14
2017-02-28T00:30:30.632Z,8.07
2017-02-28T00:31:30.273Z,8.17
2017-02-28T00:32:30.259Z,8.09
2017-02-28T00:33:31.138Z,8.16
2017-02-28T00:34:30.219Z,8.17
2017-02-28T00:35:30.215Z,8.13
2017-02-28T00:36:30.842Z,8.1
2017-02-28T00:37:30.205Z,8.04
2017-02-28T00:38:30.179Z,8.1
2017-02-28T00:39:30.941Z,8.06
2017-02-28T00:40:30.172Z,7.98
2017-02-28T00:41:30.143Z,7.96
2017-02-28T00:42:29.732Z,7.82
2017-02-28T00:43:29.728Z,7.82
2017-02-28T00:44:30.111Z,7.78
2017-02-28T00:45:30.105Z,7.77
2017-02-28T00:46:29.706Z,7.77
2017-02-28T00:47:30.087Z,7.63
2017-02-28T00:48:30.086Z,7.67
2017-02-28T00:49:30.048Z,7.64
2017-02-28T00:50:30.040Z,7.52
2017-02-28T00:51:30.033Z,7.51
2017-02-28T00:52:30.020Z,7.51
2017-02-28T00:53:29.612Z,7.51
2017-02-28T00:54:29.598Z,7.51
2017-02-28T00:55:29.600Z,7.39
2017-02-28T00:56:29.990Z,7.31
2017-02-28T00:57:29.958Z,7.33
2017-02-28T00:58:29.961Z,7.33
2017-02-28T00:59:29.942Z,7.29
2017-02-28T01:00:29.956Z,7.34
2017-02-28T01:01:29.927Z,7.39
2017-02-28T01:02:29.908Z,7.26
2017-02-28T01:03:29.893Z,7.31
2017-02-28T01:04:29.488Z,7.3
2017-02-28T01:05:29.991Z,7.36
2017-02-28T01:06:29.466Z,7.34
2017-02-28T01:07:29.853Z,7.26
2017-02-28T01:08:30.062Z,7.27
2017-02-28T01:09:29.823Z,7.29
2017-02-28T01:10:29.418Z,7.22
2017-02-28T01:11:29.972Z,7.19
2017-02-28T01:12:29.904Z,7.19
2017-02-28T01:13:29.805Z,7.22
2017-02-28T01:14:30.583Z,7.22
2017-02-28T01:15:29.366Z,7.18
2017-02-28T01:16:29.752Z,7.19
2017-02-28T01:17:30.211Z,7.18
2017-02-28T01:18:29.347Z,7.18
2017-02-28T01:19:29.722Z,7.13
2017-02-28T01:20:30.083Z,7.13
2017-02-28T01:21:29.310Z,7.03
2017-02-28T01:22:29.704Z,7.12
2017-02-28T01:23:29.898Z,7.08
2017-02-28T01:24:29.665Z,7.16
2017-02-28T01:25:29.658Z,7.15
2017-02-28T01:26:30.585Z,7.26
2017-02-28T01:27:29.633Z,7.29
2017-02-28T01:28:29.621Z,7.21
2017-02-28T01:29:29.438Z,7.22
2017-02-28T01:30:29.596Z,7.19
2017-02-28T01:31:29.587Z,7.29
2017-02-28T01:32:29.530Z,7.22
2017-02-28T01:33:29.581Z,7.23
2017-02-28T01:34:29.555Z,7.21
2017-02-28T01:35:29.872Z,7.23
2017-02-28T01:36:29.537Z,7.16
2017-02-28T01:37:29.533Z,7.22
2017-02-28T01:38:29.932Z,7.18
2017-02-28T01:39:29.490Z,7.18
2017-02-28T01:40:29.489Z,7.23
2017-02-28T01:41:29.782Z,7.18
2017-02-28T01:42:29.460Z,7.18
2017-02-28T01:43:29.447Z,7.13
2017-02-28T01:44:30.325Z,7.03
2017-02-28T01:45:29.425Z,7.21
2017-02-28T01:46:29.009Z,6.95
2017-02-28T01:47:29.440Z,7.11
2017-02-28T01:48:29.000Z,7.04
2017-02-28T01:49:29.659Z,7
2017-02-28T01:50:29.368Z,7.08
2017-02-28T01:51:29.366Z,7.01
2017-02-28T01:52:29.339Z,6.98
2017-02-28T01:53:29.342Z,7.04
2017-02-28T01:54:29.325Z,6.93
2017-02-28T01:55:29.137Z,6.9
2017-02-28T01:56:28.902Z,6.94
2017-02-28T01:57:29.283Z,6.83
2017-02-28T01:58:28.878Z,6.93
2017-02-28T01:59:28.641Z,6.86
2017-02-28T02:00:29.261Z,6.79
2017-02-28T02:01:29.239Z,6.7
2017-02-28T02:02:29.238Z,6.65
2017-02-28T02:03:30.224Z,6.62
2017-02-28T02:04:29.219Z,6.61
2017-02-28T02:05:29.188Z,6.62
2017-02-28T02:06:29.466Z,6.65
2017-02-28T02:07:28.772Z,6.52
2017-02-28T02:08:28.759Z,6.55
2017-02-28T02:09:29.150Z,6.58
2017-02-28T02:10:28.925Z,6.57
2017-02-28T02:11:29.119Z,6.54
2017-02-28T02:12:29.122Z,6.62
2017-02-28T02:13:30.078Z,6.6
2017-02-28T02:14:29.103Z,6.54
2017-02-28T02:15:29.071Z,6.47
2017-02-28T02:16:28.893Z,6.55
2017-02-28T02:17:29.046Z,6.49
2017-02-28T02:18:29.042Z,6.52
2017-02-28T02:19:28.819Z,6.47
2017-02-28T02:20:28.617Z,6.4
2017-02-28T02:21:29.003Z,6.46
2017-02-28T02:22:29.878Z,6.42
2017-02-28T02:23:28.590Z,6.51
2017-02-28T02:24:28.984Z,6.43
2017-02-28T02:25:29.349Z,6.54
2017-02-28T02:26:28.943Z,6.54
2017-02-28T02:27:30.027Z,6.4
2017-02-28T02:28:28.929Z,6.62
2017-02-28T02:29:28.519Z,6.54
2017-02-28T02:30:29.603Z,6.47
2017-02-28T02:31:28.889Z,6.46
2017-02-28T02:32:28.686Z,6.44
2017-02-28T02:33:28.646Z,6.47
2017-02-28T02:34:28.849Z,6.55
2017-02-28T02:35:28.827Z,6.52
2017-02-28T02:36:29.046Z,6.46
2017-02-28T02:37:28.831Z,6.49
2017-02-28T02:38:28.793Z,6.62
2017-02-28T02:39:28.793Z,6.62
2017-02-28T02:40:28.771Z,6.55
2017-02-28T02:41:28.768Z,6.54
2017-02-28T02:42:28.748Z,6.62
2017-02-28T02:43:28.757Z,6.62
2017-02-28T02:44:28.724Z,6.6
2017-02-28T02:45:28.716Z,6.72
2017-02-28T02:46:28.701Z,6.65
2017-02-28T02:47:28.705Z,6.8
2017-02-28T02:48:28.682Z,6.8
2017-02-28T02:49:28.686Z,6.79
2017-02-28T02:50:28.657Z,6.83
2017-02-28T02:51:28.639Z,6.86
2017-02-28T02:52:28.629Z,6.82
2017-02-28T02:53:28.241Z,6.86
2017-02-28T02:54:28.268Z,6.85
2017-02-28T02:55:28.613Z,6.9
2017-02-28T02:56:28.592Z,6.98
2017-02-28T02:57:28.579Z,6.98
2017-02-28T02:58:28.593Z,6.98
2017-02-28T02:59:28.551Z,7.12
2017-02-28T03:00:28.549Z,7.12
2017-02-28T03:01:28.121Z,7.13
2017-02-28T03:02:28.115Z,7.15
2017-02-28T03:03:28.298Z,7.19
2017-02-28T03:04:28.500Z,7.15
2017-02-28T03:05:28.471Z,7.15
2017-02-28T03:06:28.262Z,7.15
2017-02-28T03:07:28.463Z,7.15
2017-02-28T03:08:28.454Z,7.18
2017-02-28T03:09:29.381Z,7.09
2017-02-28T03:10:28.419Z,7.09
2017-02-28T03:11:28.009Z,7
2017-02-28T03:12:28.160Z,6.98
2017-02-28T03:13:28.381Z,7
2017-02-28T03:14:28.387Z,7.01
2017-02-28T03:15:28.367Z,7.05
2017-02-28T03:16:27.547Z,7.01
2017-02-28T03:17:28.333Z,7.04
2017-02-28T03:18:28.342Z,6.98
2017-02-28T03:19:27.914Z,7
2017-02-28T03:20:28.294Z,7.08
2017-02-28T03:21:28.302Z,7.01
2017-02-28T03:22:27.879Z,7.05
2017-02-28T03:23:28.265Z,7.08
2017-02-28T03:24:28.252Z,7.01
2017-02-28T03:25:28.247Z,6.86
2017-02-28T03:26:28.226Z,6.9
2017-02-28T03:27:28.232Z,6.93
2017-02-28T03:28:28.208Z,6.95
2017-02-28T03:29:27.795Z,6.82
2017-02-28T03:30:28.185Z,6.85
2017-02-28T03:31:28.172Z,6.76
2017-02-28T03:32:28.162Z,6.79
2017-02-28T03:33:28.150Z,6.72
2017-02-28T03:34:28.150Z,6.7
2017-02-28T03:35:27.725Z,6.72
2017-02-28T03:36:28.112Z,6.68
2017-02-28T03:37:28.106Z,6.78
2017-02-28T03:38:28.099Z,6.8
2017-02-28T03:39:27.684Z,6.83
2017-02-28T03:40:27.665Z,6.85
2017-02-28T03:41:28.052Z,6.85
2017-02-28T03:42:27.656Z,6.82
2017-02-28T03:43:28.040Z,6.8
2017-02-28T03:44:28.018Z,6.82
2017-02-28T03:45:28.002Z,6.85
2017-02-28T03:46:27.994Z,6.83
2017-02-28T03:47:27.987Z,6.86
2017-02-28T03:48:27.587Z,6.93
2017-02-28T03:49:27.568Z,6.83
2017-02-28T03:50:27.557Z,6.91
2017-02-28T03:51:27.934Z,6.93
2017-02-28T03:52:27.523Z,6.88
2017-02-28T03:53:27.525Z,6.94
2017-02-28T03:54:27.904Z,6.9
2017-02-28T03:55:27.886Z,6.97
2017-02-28T03:56:27.869Z,6.9
2017-02-28T03:57:27.853Z,6.86
2017-02-28T03:58:27.848Z,6.83
2017-02-28T03:59:27.832Z,6.86
2017-02-28T04:00:27.825Z,6.82
2017-02-28T04:01:27.815Z,6.88
2017-02-28T04:02:27.799Z,6.8
2017-02-28T04:03:27.837Z,6.82
2017-02-28T04:04:27.789Z,6.78
2017-02-28T04:05:27.769Z,6.82
2017-02-28T04:06:27.754Z,6.88
2017-02-28T04:07:27.744Z,6.83
2017-02-28T04:08:27.332Z,6.7
2017-02-28T04:09:27.718Z,6.64
2017-02-28T04:10:27.703Z,6.65
2017-02-28T04:11:27.695Z,6.54
2017-02-28T04:12:27.694Z,6.39
2017-02-28T04:13:27.680Z,6.21
2017-02-28T04:14:27.658Z,6.07
2017-02-28T04:15:27.647Z,6
2017-02-28T04:16:27.631Z,5.88
2017-02-28T04:17:27.625Z,5.77
2017-02-28T04:18:27.616Z,5.63
2017-02-28T04:19:27.598Z,5.55
2017-02-28T04:20:27.599Z,5.42
2017-02-28T04:21:27.570Z,5.34
2017-02-28T04:22:27.563Z,5.3
2017-02-28T04:23:27.152Z,5.16
2017-02-28T04:24:27.551Z,5.1
2017-02-28T04:25:27.523Z,5.03
2017-02-28T04:26:27.518Z,4.94
2017-02-28T04:27:27.502Z,4.98
2017-02-28T04:28:27.493Z,4.9
2017-02-28T04:29:27.078Z,4.84
2017-02-28T04:30:27.468Z,4.83
2017-02-28T04:31:27.070Z,4.66
2017-02-28T04:32:27.442Z,4.66
2017-02-28T04:33:27.421Z,4.64
2017-02-28T04:34:27.416Z,4.51
2017-02-28T04:35:26.997Z,4.48
2017-02-28T04:36:27.384Z,4.57
2017-02-28T04:37:27.375Z,4.48
2017-02-28T04:38:27.377Z,4.42
2017-02-28T04:39:27.356Z,4.33
2017-02-28T04:40:27.330Z,4.33
2017-02-28T04:41:27.321Z,4.26
2017-02-28T04:42:27.303Z,4.26
2017-02-28T04:43:27.290Z,4.21
2017-02-28T04:44:26.879Z,4.12
2017-02-28T04:45:27.275Z,4.21
2017-02-28T04:46:26.861Z,4.15
2017-02-28T04:47:27.236Z,4.1
2017-02-28T04:48:27.226Z,4.08
2017-02-28T04:49:26.826Z,3.94
2017-02-28T04:50:26.799Z,4.02
2017-02-28T04:51:27.196Z,3.96
2017-02-28T04:52:27.170Z,3.99
2017-02-28T04:53:26.768Z,3.97
2017-02-28T04:54:27.152Z,3.96
2017-02-28T04:55:26.728Z,4
2017-02-28T04:56:27.111Z,3.99
2017-02-28T04:57:27.104Z,4
2017-02-28T04:58:27.090Z,3.94
2017-02-28T04:59:27.078Z,3.93
2017-02-28T05:00:27.060Z,3.97
2017-02-28T05:01:26.663Z,3.89
2017-02-28T05:02:26.647Z,3.9
2017-02-28T05:03:27.028Z,3.94
2017-02-28T05:04:27.014Z,3.93
2017-02-28T05:05:26.997Z,3.94
2017-02-28T05:06:26.973Z,3.92
2017-02-28T05:07:26.973Z,3.93
2017-02-28T05:08:26.946Z,3.89
2017-02-28T05:09:26.959Z,3.9
2017-02-28T05:10:26.925Z,3.86
2017-02-28T05:11:26.906Z,3.86
2017-02-28T05:12:26.894Z,3.78
2017-02-28T05:13:26.878Z,3.64
2017-02-28T05:14:26.864Z,3.66
2017-02-28T05:15:26.457Z,3.63
2017-02-28T05:16:26.838Z,3.53
2017-02-28T05:17:26.822Z,3.57
2017-02-28T05:18:26.818Z,3.53
2017-02-28T05:19:26.398Z,3.53
2017-02-28T05:20:26.397Z,3.42
2017-02-28T05:21:26.769Z,3.46
2017-02-28T05:22:26.362Z,3.51
2017-02-28T05:23:26.742Z,3.49
2017-02-28T05:24:26.746Z,3.48
2017-02-28T05:25:26.716Z,3.35
2017-02-28T05:26:26.717Z,3.42
2017-02-28T05:27:26.298Z,3.42
2017-02-28T05:28:26.666Z,3.42
2017-02-28T05:29:26.653Z,3.45
2017-02-28T05:30:26.652Z,3.3
2017-02-28T05:31:26.627Z,3.3
2017-02-28T05:32:26.609Z,3.26
2017-02-28T05:33:26.595Z,3.39
2017-02-28T05:34:26.588Z,3.27
2017-02-28T05:35:26.184Z,3.16
2017-02-28T05:36:26.552Z,3.26
2017-02-28T05:37:26.537Z,3.24
2017-02-28T05:38:26.539Z,3.21
2017-02-28T05:39:26.503Z,3.23
2017-02-28T05:40:26.505Z,3.19
2017-02-28T05:41:26.488Z,3.16
2017-02-28T05:42:26.075Z,3.08
2017-02-28T05:43:26.448Z,3.17
2017-02-28T05:44:26.444Z,3.14
2017-02-28T05:45:26.418Z,3.2
2017-02-28T05:46:26.415Z,3.09
2017-02-28T05:47:26.835Z,3.06
2017-02-28T05:48:27.121Z,3.09
2017-02-28T05:49:27.127Z,3.06
2017-02-28T05:50:26.686Z,2.96
2017-02-28T05:51:26.858Z,3.05
2017-02-28T05:52:26.340Z,2.99
2017-02-28T05:53:26.304Z,2.93
2017-02-28T05:54:26.298Z,2.98
2017-02-28T05:55:26.286Z,2.9
2017-02-28T05:56:26.267Z,2.91
2017-02-28T05:57:26.261Z,2.91
2017-02-28T05:58:26.232Z,2.83
2017-02-28T05:59:25.848Z,2.85
2017-02-28T06:00:25.802Z,2.8
2017-02-28T06:01:25.788Z,2.83
2017-02-28T06:02:26.171Z,2.8
2017-02-28T06:03:26.187Z,2.8
2017-02-28T06:04:25.751Z,2.78
2017-02-28T06:05:26.136Z,2.8
2017-02-28T06:06:26.112Z,2.66
2017-02-28T06:07:26.102Z,2.78
2017-02-28T06:08:26.083Z,2.62
2017-02-28T06:09:26.092Z,2.59
2017-02-28T06:10:26.047Z,2.62
2017-02-28T06:11:26.039Z,2.66
2017-02-28T06:12:26.025Z,2.66
2017-02-28T06:13:26.023Z,2.6
2017-02-28T06:14:25.999Z,2.66
2017-02-28T06:15:25.979Z,2.66
2017-02-28T06:16:25.981Z,2.54
2017-02-28T06:17:25.949Z,2.55
2017-02-28T06:18:25.960Z,2.55
2017-02-28T06:19:25.928Z,2.55
2017-02-28T06:20:25.902Z,2.59
2017-02-28T06:21:25.516Z,2.6
2017-02-28T06:22:25.494Z,2.54
2017-02-28T06:23:26.123Z,2.59
2017-02-28T06:24:25.874Z,2.55
2017-02-28T06:25:25.833Z,2.7
2017-02-28T06:26:25.817Z,2.62
2017-02-28T06:27:25.812Z,2.63
2017-02-28T06:28:25.794Z,2.62
2017-02-28T06:29:25.379Z,2.65
2017-02-28T06:30:25.360Z,2.69
2017-02-28T06:31:25.738Z,2.72
2017-02-28T06:32:25.330Z,2.65
2017-02-28T06:33:25.718Z,2.65
2017-02-28T06:34:25.294Z,2.63
2017-02-28T06:35:24.901Z,2.69
2017-02-28T06:36:25.680Z,2.67
2017-02-28T06:37:25.660Z,2.67
2017-02-28T06:38:25.635Z,2.73
2017-02-28T06:39:25.617Z,2.77
2017-02-28T06:40:25.614Z,2.72
2017-02-28T06:41:25.602Z,2.77
2017-02-28T06:42:25.584Z,2.73
2017-02-28T06:43:25.558Z,2.77
2017-02-28T06:44:25.540Z,2.83
2017-02-28T06:45:25.529Z,2.67
2017-02-28T06:46:25.518Z,2.78
2017-02-28T06:47:25.101Z,2.78
2017-02-28T06:48:25.484Z,2.81
2017-02-28T06:49:25.468Z,2.84
2017-02-28T06:50:25.467Z,2.78
2017-02-28T06:51:25.038Z,2.8
2017-02-28T06:52:25.421Z,2.83
2017-02-28T06:53:25.409Z,2.85
2017-02-28T06:54:25.398Z,2.85
2017-02-28T06:55:24.981Z,2.8
2017-02-28T06:56:25.366Z,2.81
2017-02-28T06:57:25.360Z,2.84
2017-02-28T06:58:25.330Z,2.85
2017-02-28T06:59:25.317Z,2.91
2017-02-28T07:00:25.321Z,2.87
2017-02-28T07:01:25.295Z,2.88
2017-02-28T07:02:25.292Z,2.91
2017-02-28T07:03:25.272Z,2.93
2017-02-28T07:04:25.257Z,2.93
2017-02-28T07:05:25.236Z,2.88
2017-02-28T07:06:25.212Z,2.96
2017-02-28T07:07:25.226Z,2.96
2017-02-28T07:08:25.186Z,2.96
2017-02-28T07:09:25.183Z,2.9
2017-02-28T07:10:25.169Z,2.88
2017-02-28T07:11:25.147Z,2.99
2017-02-28T07:12:25.148Z,2.98
2017-02-28T07:13:25.112Z,2.87
2017-02-28T07:14:25.107Z,2.96
2017-02-28T07:15:25.089Z,2.87
2017-02-28T07:16:25.081Z,2.96
2017-02-28T07:17:25.046Z,2.98
2017-02-28T07:18:25.039Z,3.01
2017-02-28T07:19:24.228Z,3.02
2017-02-28T07:20:25.344Z,2.96
2017-02-28T07:21:25.018Z,3.02
2017-02-28T07:22:24.974Z,2.96
2017-02-28T07:23:24.963Z,3.01
2017-02-28T07:24:24.953Z,2.98
2017-02-28T07:25:24.939Z,2.88
2017-02-28T07:26:24.929Z,2.99
2017-02-28T07:27:24.920Z,3.01
2017-02-28T07:28:24.891Z,3.02
2017-02-28T07:29:24.869Z,3.03
2017-02-28T07:30:24.459Z,2.99
2017-02-28T07:31:24.841Z,3.05
2017-02-28T07:32:24.431Z,3.06
2017-02-28T07:33:24.821Z,3.01
2017-02-28T07:34:24.809Z,3.06
2017-02-28T07:35:24.781Z,2.93
2017-02-28T07:36:24.375Z,3.06
2017-02-28T07:37:24.770Z,3.05
2017-02-28T07:38:24.750Z,3.09
2017-02-28T07:39:24.332Z,3.09
2017-02-28T07:40:24.710Z,3.06
2017-02-28T07:41:24.703Z,3.02
2017-02-28T07:42:24.692Z,3.11
2017-02-28T07:43:24.665Z,3.13
2017-02-28T07:44:24.648Z,3.08
2017-02-28T07:45:24.243Z,3.21
2017-02-28T07:46:24.234Z,3.09
2017-02-28T07:47:24.215Z,3.14
2017-02-28T07:48:24.595Z,3.17
2017-02-28T07:49:24.184Z,3.13
2017-02-28T07:50:24.185Z,3.27
2017-02-28T07:51:24.556Z,3.23
2017-02-28T07:52:24.546Z,3.21
2017-02-28T07:53:24.515Z,3.21
2017-02-28T07:54:24.104Z,3.34
2017-02-28T07:55:24.505Z,3.32
2017-02-28T07:56:24.076Z,3.43
2017-02-28T07:57:24.060Z,3.48
2017-02-28T07:58:23.656Z,3.45
2017-02-28T07:59:24.052Z,3.39
2017-02-28T08:00:24.043Z,3.48
2017-02-28T08:01:24.011Z,3.51
2017-02-28T08:02:23.996Z,3.43
2017-02-28T08:03:24.388Z,3.48
2017-02-28T08:04:24.369Z,3.48
2017-02-28T08:05:24.340Z,3.48
2017-02-28T08:06:24.335Z,3.51
2017-02-28T08:07:23.921Z,3.46
2017-02-28T08:08:23.500Z,3.56
2017-02-28T08:09:24.291Z,3.58
2017-02-28T08:10:24.278Z,3.57
2017-02-28T08:11:24.255Z,3.54
2017-02-28T08:12:24.255Z,3.48
2017-02-28T08:13:24.236Z,3.48
2017-02-28T08:14:24.216Z,3.51
2017-02-28T08:15:24.200Z,3.49
2017-02-28T08:16:24.180Z,3.53
2017-02-28T08:17:24.175Z,3.48
2017-02-28T08:18:24.167Z,3.51
2017-02-28T08:19:24.151Z,3.53
2017-02-28T08:20:24.129Z,3.53
2017-02-28T08:21:24.156Z,3.6
2017-02-28T08:22:23.697Z,3.6
2017-02-28T08:23:24.109Z,3.48
2017-02-28T08:24:24.071Z,3.54
2017-02-28T08:25:24.077Z,3.51
2017-02-28T08:26:24.059Z,3.54
2017-02-28T08:27:24.025Z,3.56
2017-02-28T08:28:24.012Z,3.56
2017-02-28T08:29:24.003Z,3.61
2017-02-28T08:30:23.983Z,3.61
2017-02-28T08:31:23.977Z,3.56
2017-02-28T08:32:23.957Z,3.56
2017-02-28T08:33:23.940Z,3.6
2017-02-28T08:34:23.946Z,3.51
2017-02-28T08:35:23.513Z,3.49
2017-02-28T08:36:23.528Z,3.45
2017-02-28T08:37:23.891Z,3.49
2017-02-28T08:38:23.878Z,3.57
2017-02-28T08:39:23.862Z,3.57
2017-02-28T08:40:23.449Z,3.49
2017-02-28T08:41:23.825Z,3.51
2017-02-28T08:42:23.815Z,3.37
2017-02-28T08:43:23.398Z,3.53
2017-02-28T08:44:23.801Z,3.53
2017-02-28T08:45:23.766Z,3.46
2017-02-28T08:46:23.756Z,3.4
2017-02-28T08:47:23.754Z,3.4
2017-02-28T08:48:23.779Z,3.46
2017-02-28T08:49:23.711Z,3.42
2017-02-28T08:50:23.696Z,3.4
2017-02-28T08:51:23.702Z,3.43
2017-02-28T08:52:23.684Z,3.54
2017-02-28T08:53:23.662Z,3.51
2017-02-28T08:54:23.638Z,3.48
2017-02-28T08:55:23.636Z,3.48
2017-02-28T08:56:23.638Z,3.56
2017-02-28T08:57:23.597Z,3.46
2017-02-28T08:58:23.581Z,3.46
2017-02-28T08:59:23.567Z,3.54
2017-02-28T09:00:23.565Z,3.51
2017-02-28T09:01:23.140Z,3.54
2017-02-28T09:02:23.524Z,3.56
2017-02-28T09:03:23.516Z,3.53
2017-02-28T09:04:23.494Z,3.48
2017-02-28T09:05:23.488Z,3.56
2017-02-28T09:06:23.478Z,3.56
2017-02-28T09:07:22.695Z,3.57
2017-02-28T09:08:23.452Z,3.51
2017-02-28T09:09:23.429Z,3.58
2017-02-28T09:10:23.421Z,3.6
2017-02-28T09:11:23.398Z,3.49
2017-02-28T09:12:23.378Z,3.49
2017-02-28T09:13:23.379Z,3.45
2017-02-28T09:14:23.350Z,3.48
2017-02-28T09:15:23.343Z,3.46
2017-02-28T09:16:23.324Z,3.48
2017-02-28T09:17:23.305Z,3.43
2017-02-28T09:18:22.916Z,3.43
2017-02-28T09:19:23.282Z,3.46
2017-02-28T09:20:23.262Z,3.56
2017-02-28T09:21:23.259Z,3.54
2017-02-28T09:22:23.243Z,3.46
2017-02-28T09:23:22.823Z,3.48
2017-02-28T09:24:23.221Z,3.49
2017-02-28T09:25:22.804Z,3.6
2017-02-28T09:26:23.217Z,3.58
2017-02-28T09:27:23.166Z,3.63
2017-02-28T09:28:23.150Z,3.61
2017-02-28T09:29:23.141Z,3.63
2017-02-28T09:30:22.808Z,3.56
2017-02-28T09:31:23.117Z,3.66
2017-02-28T09:32:23.095Z,3.66
2017-02-28T09:33:23.085Z,3.69
2017-02-28T09:34:23.074Z,3.69
2017-02-28T09:35:23.056Z,3.69
2017-02-28T09:36:23.040Z,3.78
2017-02-28T09:37:23.045Z,3.74
2017-02-28T09:38:22.620Z,3.84
2017-02-28T09:39:23.004Z,3.82
2017-02-28T09:40:22.986Z,3.84
2017-02-28T09:41:22.982Z,3.92
2017-02-28T09:42:22.557Z,4.02
2017-02-28T09:43:22.938Z,3.96
2017-02-28T09:44:22.922Z,4.1
2017-02-28T09:45:22.923Z,4.12
2017-02-28T09:46:22.919Z,4.22
2017-02-28T09:47:22.501Z,4.17
2017-02-28T09:48:22.872Z,4.28
2017-02-28T09:49:22.467Z,4.32
2017-02-28T09:50:22.848Z,4.36
2017-02-28T09:51:22.826Z,4.48
2017-02-28T09:52:22.814Z,4.54
2017-02-28T09:53:22.812Z,4.56
2017-02-28T09:54:22.392Z,4.47
2017-02-28T09:55:22.785Z,4.65
2017-02-28T09:56:22.764Z,4.6
2017-02-28T09:57:22.344Z,4.68
2017-02-28T09:58:22.740Z,4.76
2017-02-28T09:59:22.320Z,4.71
2017-02-28T10:00:22.726Z,4.83
2017-02-28T10:01:22.692Z,4.92
2017-02-28T10:02:22.310Z,5
2017-02-28T10:03:22.671Z,5.02
2017-02-28T10:04:22.650Z,4.92
2017-02-28T10:05:22.239Z,4.98
2017-02-28T10:06:22.623Z,5.06
2017-02-28T10:07:21.825Z,5.13
2017-02-28T10:08:22.203Z,5.12
2017-02-28T10:09:22.194Z,5.09
2017-02-28T10:10:21.782Z,5.03
2017-02-28T10:11:22.161Z,4.98
2017-02-28T10:12:22.156Z,5.08
2017-02-28T10:13:22.145Z,4.97
2017-02-28T10:14:22.126Z,5.03
2017-02-28T10:15:22.123Z,5.09
2017-02-28T10:16:22.113Z,5.2
2017-02-28T10:17:22.097Z,5.2
2017-02-28T10:18:22.087Z,5.37
2017-02-28T10:19:21.662Z,5.44
2017-02-28T10:20:22.446Z,5.46
2017-02-28T10:21:22.432Z,5.45
2017-02-28T10:22:22.415Z,5.45
2017-02-28T10:23:22.407Z,5.66
2017-02-28T10:24:22.391Z,5.72
2017-02-28T10:25:22.389Z,5.82
2017-02-28T10:26:22.373Z,5.77
2017-02-28T10:27:22.363Z,5.77
2017-02-28T10:28:22.355Z,5.8
2017-02-28T10:29:21.932Z,5.81
2017-02-28T10:30:21.918Z,5.89
2017-02-28T10:31:22.311Z,5.91
2017-02-28T10:32:22.295Z,5.88
2017-02-28T10:33:21.906Z,5.85
2017-02-28T10:34:22.282Z,5.88
2017-02-28T10:35:22.255Z,5.78
2017-02-28T10:36:22.241Z,5.82
2017-02-28T10:37:22.240Z,5.92
2017-02-28T10:38:22.217Z,5.82
2017-02-28T10:39:22.215Z,5.89
2017-02-28T10:40:22.196Z,5.84
2017-02-28T10:41:22.182Z,5.88
2017-02-28T10:42:21.792Z,5.81
2017-02-28T10:43:22.164Z,5.82
2017-02-28T10:44:21.747Z,5.84
2017-02-28T10:45:22.151Z,5.88
2017-02-28T10:46:22.119Z,5.87
2017-02-28T10:47:22.165Z,5.96
2017-02-28T10:48:22.097Z,5.84
2017-02-28T10:49:22.081Z,5.78
2017-02-28T10:50:22.073Z,5.8
2017-02-28T10:51:21.663Z,5.81
2017-02-28T10:52:22.046Z,5.72
2017-02-28T10:53:22.046Z,5.75
2017-02-28T10:54:21.655Z,5.82
2017-02-28T10:55:22.017Z,5.77
2017-02-28T10:56:21.993Z,5.81
2017-02-28T10:57:22.000Z,5.75
2017-02-28T10:58:21.579Z,5.8
2017-02-28T10:59:21.984Z,5.81
2017-02-28T11:00:21.954Z,5.8
2017-02-28T11:01:21.950Z,5.8
2017-02-28T11:02:21.928Z,5.73
2017-02-28T11:03:21.923Z,5.8
2017-02-28T11:04:21.901Z,5.84
2017-02-28T11:05:21.891Z,5.63
2017-02-28T11:06:21.488Z,5.55
2017-02-28T11:07:21.870Z,5.49
2017-02-28T11:08:21.853Z,5.51
2017-02-28T11:09:21.845Z,5.49
2017-02-28T11:10:21.845Z,5.6
2017-02-28T11:11:21.814Z,5.59
2017-02-28T11:12:21.819Z,5.72
2017-02-28T11:13:21.794Z,5.72
2017-02-28T11:14:21.791Z,5.7
2017-02-28T11:15:21.371Z,5.7
2017-02-28T11:16:21.758Z,5.59
2017-02-28T11:17:21.743Z,5.59
2017-02-28T11:18:21.746Z,5.64
2017-02-28T11:19:21.728Z,5.62
2017-02-28T11:20:21.709Z,5.59
2017-02-28T11:21:21.302Z,5.64
2017-02-28T11:22:21.694Z,5.62
2017-02-28T11:23:21.299Z,5.66
2017-02-28T11:24:21.269Z,5.72
2017-02-28T11:25:21.654Z,5.77
2017-02-28T11:26:21.641Z,5.75
2017-02-28T11:27:21.244Z,5.73
2017-02-28T11:28:21.607Z,5.7
2017-02-28T11:29:21.597Z,5.64
2017-02-28T11:30:21.184Z,5.78
2017-02-28T11:31:21.590Z,5.7
2017-02-28T11:32:21.166Z,5.82
2017-02-28T11:33:21.149Z,5.73
2017-02-28T11:34:21.552Z,5.64
2017-02-28T11:35:21.126Z,5.75
2017-02-28T11:36:21.521Z,5.62
2017-02-28T11:37:21.109Z,5.64
2017-02-28T11:38:21.491Z,5.63
2017-02-28T11:39:21.075Z,5.63
2017-02-28T11:40:21.462Z,5.55
2017-02-28T11:41:21.049Z,5.6
2017-02-28T11:42:21.048Z,5.6
2017-02-28T11:43:21.027Z,5.6
2017-02-28T11:44:21.047Z,5.67
2017-02-28T11:45:21.017Z,5.67
2017-02-28T11:46:21.004Z,5.72
2017-02-28T11:47:20.981Z,5.77
2017-02-28T11:48:20.968Z,5.7
2017-02-28T11:49:20.958Z,5.81
2017-02-28T11:50:20.952Z,5.8
2017-02-28T11:51:21.325Z,5.75
2017-02-28T11:52:20.918Z,5.8
2017-02-28T11:53:20.910Z,5.69
2017-02-28T11:54:21.288Z,5.77
2017-02-28T11:55:21.282Z,5.72
2017-02-28T11:56:20.875Z,5.72
2017-02-28T11:57:21.248Z,5.63
2017-02-28T11:58:21.259Z,5.69
2017-02-28T11:59:21.235Z,5.7
2017-02-28T12:00:21.216Z,5.67
2017-02-28T12:01:21.278Z,5.77
2017-02-28T12:02:21.202Z,5.77
2017-02-28T12:03:21.245Z,5.75
2017-02-28T12:04:21.173Z,5.95
2017-02-28T12:05:21.151Z,5.89
2017-02-28T12:06:21.143Z,5.89
2017-02-28T12:07:21.141Z,5.91
2017-02-28T12:08:21.123Z,5.85
2017-02-28T12:09:21.124Z,5.78
2017-02-28T12:10:21.089Z,5.82
2017-02-28T12:11:21.095Z,5.72
2017-02-28T12:12:21.071Z,5.8
2017-02-28T12:13:21.056Z,5.75
2017-02-28T12:14:21.041Z,5.87
2017-02-28T12:15:21.036Z,5.77
2017-02-28T12:16:21.026Z,5.67
2017-02-28T12:17:21.017Z,5.54
2017-02-28T12:18:20.992Z,5.41
2017-02-28T12:19:21.075Z,5.45
2017-02-28T12:20:20.989Z,5.44
2017-02-28T12:21:20.977Z,5.46
2017-02-28T12:22:20.953Z,5.64
2017-02-28T12:23:20.955Z,5.73
2017-02-28T12:24:20.934Z,5.89
2017-02-28T12:25:20.925Z,5.91
2017-02-28T12:26:20.903Z,5.96
2017-02-28T12:27:20.883Z,5.95
2017-02-28T12:28:20.868Z,5.91
2017-02-28T12:29:20.860Z,5.92
2017-02-28T12:30:20.861Z,5.91
2017-02-28T12:31:20.852Z,5.87
2017-02-28T12:32:20.830Z,5.77
2017-02-28T12:33:20.807Z,5.6
2017-02-28T12:34:20.797Z,5.52
2017-02-28T12:35:20.393Z,5.52
2017-02-28T12:36:20.371Z,5.7
2017-02-28T12:37:20.766Z,5.78
2017-02-28T12:38:20.757Z,5.75
2017-02-28T12:39:20.739Z,5.72
2017-02-28T12:40:20.738Z,5.8
2017-02-28T12:41:20.711Z,5.73
2017-02-28T12:42:20.707Z,5.7
2017-02-28T12:43:20.683Z,5.7
2017-02-28T12:44:20.681Z,5.78
2017-02-28T12:45:20.673Z,5.77
2017-02-28T12:46:20.656Z,5.69
2017-02-28T12:47:20.647Z,5.7
2017-02-28T12:48:20.624Z,5.73
2017-02-28T12:49:20.612Z,5.73
2017-02-28T12:50:20.607Z,5.7
2017-02-28T12:51:20.582Z,5.72
2017-02-28T12:52:20.623Z,5.59
2017-02-28T12:53:20.569Z,5.64
2017-02-28T12:54:20.558Z,5.66
2017-02-28T12:55:20.567Z,5.51
2017-02-28T12:56:20.530Z,5.57
2017-02-28T12:57:20.513Z,5.49
2017-02-28T12:58:20.509Z,5.51
2017-02-28T12:59:20.501Z,5.52
2017-02-28T13:00:20.476Z,5.52
2017-02-28T13:01:20.481Z,5.57
2017-02-28T13:02:20.470Z,5.64
2017-02-28T13:03:20.048Z,5.63
2017-02-28T13:04:20.442Z,5.63
2017-02-28T13:05:20.421Z,5.62
2017-02-28T13:06:20.408Z,5.6
2017-02-28T13:07:20.406Z,5.66
2017-02-28T13:08:20.389Z,5.66
2017-02-28T13:09:20.358Z,5.72
2017-02-28T13:10:20.371Z,5.8
2017-02-28T13:11:19.954Z,5.78
2017-02-28T13:12:20.321Z,5.87
2017-02-28T13:13:19.966Z,5.82
2017-02-28T13:14:20.314Z,5.77
2017-02-28T13:15:19.920Z,5.8
2017-02-28T13:16:20.273Z,5.81
2017-02-28T13:17:20.262Z,5.87
2017-02-28T13:18:20.259Z,5.8
2017-02-28T13:19:20.239Z,5.8
2017-02-28T13:20:20.235Z,5.89
2017-02-28T13:21:20.211Z,5.92
2017-02-28T13:22:20.199Z,5.99